sensor_id;sensor_type;location;lat;lon;timestamp;pressure;altitude;pressure_sealevel;temperature;humidity
56400;BME280;42298;53.638;9.876;2023-04-05T00:01:13;102399.72;;;2.72;56.79
56400;BME280;42298;53.638;9.876;2023-04-05T00:03:40;102417.38;;;2.88;56.78
56400;BME280;42298;53.638;9.876;2023-04-05T00:06:06;102413.44;;;2.84;56.33
56400;BME280;42298;53.638;9.876;2023-04-05T00:08:32;102395.56;;;2.63;55.90
56400;BME280;42298;53.638;9.876;2023-04-05T00:10:57;102408.69;;;2.73;56.89
56400;BME280;42298;53.638;9.876;2023-04-05T00:13:23;102403.72;;;2.63;56.09
56400;BME280;42298;53.638;9.876;2023-04-05T00:15:49;102397.47;;;2.56;56.88
56400;BME280;42298;53.638;9.876;2023-04-05T00:18:16;102388.09;;;2.52;57.33
56400;BME280;42298;53.638;9.876;2023-04-05T00:20:51;102415.38;;;2.77;58.52
56400;BME280;42298;53.638;9.876;2023-04-05T00:23:17;102408.22;;;2.82;58.99
56400;BME280;42298;53.638;9.876;2023-04-05T00:25:43;102417.78;;;2.91;59.85
56400;BME280;42298;53.638;9.876;2023-04-05T00:28:09;102415.47;;;2.95;59.71
56400;BME280;42298;53.638;9.876;2023-04-05T00:30:35;102421.97;;;2.94;58.09
56400;BME280;42298;53.638;9.876;2023-04-05T00:33:00;102408.41;;;2.87;58.31
56400;BME280;42298;53.638;9.876;2023-04-05T00:35:29;102400.63;;;2.91;58.24
56400;BME280;42298;53.638;9.876;2023-04-05T00:37:55;102407.03;;;2.72;56.66
56400;BME280;42298;53.638;9.876;2023-04-05T00:40:22;102392.69;;;2.52;56.89
56400;BME280;42298;53.638;9.876;2023-04-05T00:42:47;102398.97;;;2.46;56.93
56400;BME280;42298;53.638;9.876;2023-04-05T00:45:12;102414.41;;;2.58;57.22
56400;BME280;42298;53.638;9.876;2023-04-05T00:47:40;102417.97;;;2.59;58.03
56400;BME280;42298;53.638;9.876;2023-04-05T00:50:07;102413.19;;;2.54;60.13
56400;BME280;42298;53.638;9.876;2023-04-05T00:52:34;102392.69;;;2.52;58.72
56400;BME280;42298;53.638;9.876;2023-04-05T00:54:59;102388.72;;;2.48;58.74
56400;BME280;42298;53.638;9.876;2023-04-05T00:57:25;102396.22;;;2.59;57.04
56400;BME280;42298;53.638;9.876;2023-04-05T00:59:57;102375.81;;;2.37;56.39
56400;BME280;42298;53.638;9.876;2023-04-05T01:02:35;102400.88;;;2.45;57.71
56400;BME280;42298;53.638;9.876;2023-04-05T01:05:08;102394.25;;;2.28;58.70
56400;BME280;42298;53.638;9.876;2023-04-05T01:07:53;102391.31;;;2.30;58.81
56400;BME280;42298;53.638;9.876;2023-04-05T01:10:29;102383.81;;;2.32;59.48
56400;BME280;42298;53.638;9.876;2023-04-05T01:12:55;102385.66;;;2.31;59.30
56400;BME280;42298;53.638;9.876;2023-04-05T01:15:21;102372.50;;;2.28;59.12
56400;BME280;42298;53.638;9.876;2023-04-05T01:17:46;102397.13;;;2.40;56.95
56400;BME280;42298;53.638;9.876;2023-04-05T01:20:13;102378.38;;;2.32;57.30
56400;BME280;42298;53.638;9.876;2023-04-05T01:34:35;102376.72;;;2.18;57.42
56400;BME280;42298;53.638;9.876;2023-04-05T01:37:11;102372.78;;;2.14;57.98
56400;BME280;42298;53.638;9.876;2023-04-05T01:39:37;102370.88;;;2.14;58.33
56400;BME280;42298;53.638;9.876;2023-04-05T01:42:03;102371.31;;;2.11;57.47
56400;BME280;42298;53.638;9.876;2023-04-05T01:44:28;102361.94;;;2.07;57.87
56400;BME280;42298;53.638;9.876;2023-04-05T01:46:54;102364.22;;;2.10;57.00
56400;BME280;42298;53.638;9.876;2023-04-05T01:49:20;102354.84;;;1.99;57.91
56400;BME280;42298;53.638;9.876;2023-04-05T01:51:45;102351.28;;;2.06;59.20
56400;BME280;42298;53.638;9.876;2023-04-05T01:54:11;102348.31;;;2.14;60.57
56400;BME280;42298;53.638;9.876;2023-04-05T01:56:36;102334.53;;;2.15;60.18
56400;BME280;42298;53.638;9.876;2023-04-05T01:59:01;102358.28;;;2.26;58.25
56400;BME280;42298;53.638;9.876;2023-04-05T02:01:28;102348.06;;;2.22;57.69
56400;BME280;42298;53.638;9.876;2023-04-05T02:03:53;102336.63;;;2.13;57.30
56400;BME280;42298;53.638;9.876;2023-04-05T02:06:19;102332.25;;;2.06;56.92
56400;BME280;42298;53.638;9.876;2023-04-05T02:08:44;102350.78;;;2.22;57.56
56400;BME280;42298;53.638;9.876;2023-04-05T02:11:09;102348.72;;;2.17;57.27
56400;BME280;42298;53.638;9.876;2023-04-05T02:13:35;102339.59;;;1.98;59.00
56400;BME280;42298;53.638;9.876;2023-04-05T02:16:00;102345.69;;;1.94;57.99
56400;BME280;42298;53.638;9.876;2023-04-05T02:18:27;102332.53;;;1.98;57.87
56400;BME280;42298;53.638;9.876;2023-04-05T02:21:06;102333.75;;;2.02;58.22
56400;BME280;42298;53.638;9.876;2023-04-05T02:23:32;102337.69;;;2.06;57.73
56400;BME280;42298;53.638;9.876;2023-04-05T02:25:59;102336.25;;;1.96;56.17
56400;BME280;42298;53.638;9.876;2023-04-05T02:28:25;102342.34;;;1.92;56.82
56400;BME280;42298;53.638;9.876;2023-04-05T02:30:51;102322.78;;;1.70;56.95
56400;BME280;42298;53.638;9.876;2023-04-05T02:33:16;102330.09;;;1.63;57.96
56400;BME280;42298;53.638;9.876;2023-04-05T02:35:43;102343.44;;;1.65;58.26
56400;BME280;42298;53.638;9.876;2023-04-05T02:38:08;102346.38;;;1.63;57.49
56400;BME280;42298;53.638;9.876;2023-04-05T02:40:35;102325.94;;;1.54;57.66
56400;BME280;42298;53.638;9.876;2023-04-05T02:43:00;102347.66;;;1.61;57.71
56400;BME280;42298;53.638;9.876;2023-04-05T02:45:26;102325.13;;;1.47;57.59
56400;BME280;42298;53.638;9.876;2023-04-05T02:47:52;102318.41;;;1.56;60.12
56400;BME280;42298;53.638;9.876;2023-04-05T02:50:17;102340.94;;;1.76;61.50
56400;BME280;42298;53.638;9.876;2023-04-05T02:52:48;102318.78;;;1.79;60.13
56400;BME280;42298;53.638;9.876;2023-04-05T02:55:14;102302.56;;;1.53;57.84
56400;BME280;42298;53.638;9.876;2023-04-05T02:57:41;102341.19;;;1.55;58.18
56400;BME280;42298;53.638;9.876;2023-04-05T03:00:06;102320.34;;;1.30;59.32
56400;BME280;42298;53.638;9.876;2023-04-05T03:02:32;102317.63;;;1.17;59.70
56400;BME280;42298;53.638;9.876;2023-04-05T03:04:58;102318.06;;;1.07;59.42
56400;BME280;42298;53.638;9.876;2023-04-05T03:07:26;102307.41;;;1.06;60.47
56400;BME280;42298;53.638;9.876;2023-04-05T03:09:51;102299.69;;;1.09;60.27
56400;BME280;42298;53.638;9.876;2023-04-05T03:12:18;102326.00;;;1.28;59.15
56400;BME280;42298;53.638;9.876;2023-04-05T03:14:43;102330.56;;;1.28;58.48
56400;BME280;42298;53.638;9.876;2023-04-05T03:17:10;102320.75;;;1.27;57.73
56400;BME280;42298;53.638;9.876;2023-04-05T03:19:35;102330.16;;;1.31;57.30
56400;BME280;42298;53.638;9.876;2023-04-05T03:22:00;102323.06;;;1.23;57.98
56400;BME280;42298;53.638;9.876;2023-04-05T03:24:26;102321.59;;;1.14;59.44
56400;BME280;42298;53.638;9.876;2023-04-05T03:26:51;102290.13;;;1.00;58.42
56400;BME280;42298;53.638;9.876;2023-04-05T03:29:16;102318.88;;;1.14;57.72
56400;BME280;42298;53.638;9.876;2023-04-05T03:31:42;102293.03;;;1.12;59.91
56400;BME280;42298;53.638;9.876;2023-04-05T03:34:08;102301.13;;;1.25;61.52
56400;BME280;42298;53.638;9.876;2023-04-05T03:36:33;102309.50;;;1.30;61.04
56400;BME280;42298;53.638;9.876;2023-04-05T03:39:12;102316.75;;;1.42;61.48
56400;BME280;42298;53.638;9.876;2023-04-05T03:41:38;102291.56;;;1.22;60.45
56400;BME280;42298;53.638;9.876;2023-04-05T03:44:04;102309.28;;;1.25;58.73
56400;BME280;42298;53.638;9.876;2023-04-05T03:46:30;102304.09;;;1.10;58.64
56400;BME280;42298;53.638;9.876;2023-04-05T03:48:56;102293.44;;;1.02;58.61
56400;BME280;42298;53.638;9.876;2023-04-05T03:51:22;102310.13;;;1.12;57.73
56400;BME280;42298;53.638;9.876;2023-04-05T03:53:48;102316.81;;;1.16;57.79
56400;BME280;42298;53.638;9.876;2023-04-05T03:56:13;102314.94;;;1.10;57.60
56400;BME280;42298;53.638;9.876;2023-04-05T03:58:39;102296.97;;;0.96;58.24
56400;BME280;42298;53.638;9.876;2023-04-05T04:01:05;102314.72;;;1.05;57.92
56400;BME280;42298;53.638;9.876;2023-04-05T04:03:32;102303.44;;;1.08;56.96
56400;BME280;42298;53.638;9.876;2023-04-05T04:05:57;102290.31;;;1.05;56.64
56400;BME280;42298;53.638;9.876;2023-04-05T04:08:23;102308.25;;;1.19;58.09
56400;BME280;42298;53.638;9.876;2023-04-05T04:10:49;102312.63;;;1.20;60.01
56400;BME280;42298;53.638;9.876;2023-04-05T04:13:14;102306.38;;;1.13;62.91
56400;BME280;42298;53.638;9.876;2023-04-05T04:15:40;102303.03;;;1.05;62.22
56400;BME280;42298;53.638;9.876;2023-04-05T04:18:05;102276.53;;;0.94;60.63
56400;BME280;42298;53.638;9.876;2023-04-05T04:20:31;102294.03;;;1.11;59.55
56400;BME280;42298;53.638;9.876;2023-04-05T04:22:57;102298.00;;;1.21;58.90
56400;BME280;42298;53.638;9.876;2023-04-05T04:25:22;102290.91;;;1.20;58.34
56400;BME280;42298;53.638;9.876;2023-04-05T04:27:51;102292.56;;;1.21;59.66
56400;BME280;42298;53.638;9.876;2023-04-05T04:30:17;102298.44;;;1.31;61.60
56400;BME280;42298;53.638;9.876;2023-04-05T04:32:47;102302.38;;;1.29;60.58
56400;BME280;42298;53.638;9.876;2023-04-05T04:35:25;102308.88;;;1.34;59.88
56400;BME280;42298;53.638;9.876;2023-04-05T04:37:53;102300.91;;;1.39;59.24
56400;BME280;42298;53.638;9.876;2023-04-05T04:40:20;102298.56;;;1.56;60.04
56400;BME280;42298;53.638;9.876;2023-04-05T04:42:47;102298.78;;;1.67;61.55
56400;BME280;42298;53.638;9.876;2023-04-05T04:45:16;102294.94;;;1.81;60.21
56400;BME280;42298;53.638;9.876;2023-04-05T04:47:43;102289.56;;;1.75;58.75
56400;BME280;42298;53.638;9.876;2023-04-05T04:50:08;102272.25;;;1.63;58.20
56400;BME280;42298;53.638;9.876;2023-04-05T04:52:34;102291.41;;;1.74;58.12
56400;BME280;42298;53.638;9.876;2023-04-05T04:55:01;102285.19;;;1.67;58.03
56400;BME280;42298;53.638;9.876;2023-04-05T04:57:27;102286.44;;;1.65;58.37
56400;BME280;42298;53.638;9.876;2023-04-05T04:59:52;102297.47;;;1.76;59.29
56400;BME280;42298;53.638;9.876;2023-04-05T05:02:22;102299.50;;;1.87;59.99
56400;BME280;42298;53.638;9.876;2023-04-05T05:04:48;102289.72;;;1.86;59.62
56400;BME280;42298;53.638;9.876;2023-04-05T05:07:13;102276.91;;;1.93;60.95
56400;BME280;42298;53.638;9.876;2023-04-05T05:09:38;102285.59;;;2.15;61.18
56400;BME280;42298;53.638;9.876;2023-04-05T05:12:04;102289.25;;;2.34;61.91
56400;BME280;42298;53.638;9.876;2023-04-05T05:14:29;102288.56;;;2.45;60.65
56400;BME280;42298;53.638;9.876;2023-04-05T05:16:54;102288.53;;;2.51;60.15
56400;BME280;42298;53.638;9.876;2023-04-05T05:19:23;102294.56;;;2.53;61.81
56400;BME280;42298;53.638;9.876;2023-04-05T05:21:48;102283.75;;;2.47;63.14
56400;BME280;42298;53.638;9.876;2023-04-05T05:24:14;102287.69;;;2.51;63.41
56400;BME280;42298;53.638;9.876;2023-04-05T05:26:39;102289.97;;;2.54;63.03
56400;BME280;42298;53.638;9.876;2023-04-05T05:29:05;102289.72;;;2.62;62.21
56400;BME280;42298;53.638;9.876;2023-04-05T05:31:30;102281.03;;;2.78;63.31
56400;BME280;42298;53.638;9.876;2023-04-05T05:33:57;102272.75;;;2.91;63.17
56400;BME280;42298;53.638;9.876;2023-04-05T05:36:23;102277.97;;;3.17;63.63
56400;BME280;42298;53.638;9.876;2023-04-05T05:38:49;102280.94;;;3.33;63.02
56400;BME280;42298;53.638;9.876;2023-04-05T05:41:15;102285.25;;;3.41;63.37
56400;BME280;42298;53.638;9.876;2023-04-05T05:43:40;102284.00;;;3.61;62.69
56400;BME280;42298;53.638;9.876;2023-04-05T05:46:05;102284.38;;;3.83;62.53
56400;BME280;42298;53.638;9.876;2023-04-05T05:48:31;102266.97;;;3.84;62.18
56400;BME280;42298;53.638;9.876;2023-04-05T05:50:57;102252.25;;;4.03;60.98
56400;BME280;42298;53.638;9.876;2023-04-05T05:53:35;102267.44;;;4.70;61.15
56400;BME280;42298;53.638;9.876;2023-04-05T05:56:04;102275.44;;;5.17;59.41
56400;BME280;42298;53.638;9.876;2023-04-05T05:58:30;102281.03;;;5.45;58.68
56400;BME280;42298;53.638;9.876;2023-04-05T06:00:55;102278.03;;;5.58;58.62
56400;BME280;42298;53.638;9.876;2023-04-05T06:03:22;102285.28;;;5.53;58.62
56400;BME280;42298;53.638;9.876;2023-04-05T06:05:57;102280.88;;;5.63;58.54
56400;BME280;42298;53.638;9.876;2023-04-05T06:08:24;102280.41;;;5.66;59.26
56400;BME280;42298;53.638;9.876;2023-04-05T06:10:50;102274.59;;;5.74;59.29
56400;BME280;42298;53.638;9.876;2023-04-05T06:13:16;102258.28;;;5.79;59.79
56400;BME280;42298;53.638;9.876;2023-04-05T06:15:42;102244.84;;;5.78;59.89
56400;BME280;42298;53.638;9.876;2023-04-05T06:18:07;102221.94;;;5.67;60.19
56400;BME280;42298;53.638;9.876;2023-04-05T06:20:33;102232.50;;;5.87;60.72
56400;BME280;42298;53.638;9.876;2023-04-05T06:22:59;102247.00;;;6.16;59.92
56400;BME280;42298;53.638;9.876;2023-04-05T06:25:25;102245.28;;;6.54;58.52
56400;BME280;42298;53.638;9.876;2023-04-05T06:27:50;102257.94;;;6.72;57.65
56400;BME280;42298;53.638;9.876;2023-04-05T06:30:16;102256.69;;;6.79;57.94
56400;BME280;42298;53.638;9.876;2023-04-05T06:32:41;102225.38;;;6.75;58.63
56400;BME280;42298;53.638;9.876;2023-04-05T06:35:07;102254.72;;;7.08;56.75
56400;BME280;42298;53.638;9.876;2023-04-05T06:37:32;102238.28;;;7.08;56.32
56400;BME280;42298;53.638;9.876;2023-04-05T06:39:58;102227.22;;;7.03;57.60
56400;BME280;42298;53.638;9.876;2023-04-05T06:42:24;102255.00;;;7.28;57.12
56400;BME280;42298;53.638;9.876;2023-04-05T06:44:50;102258.88;;;7.32;56.82
56400;BME280;42298;53.638;9.876;2023-04-05T06:47:15;102255.09;;;7.33;55.41
56400;BME280;42298;53.638;9.876;2023-04-05T06:49:40;102251.66;;;7.26;55.46
56400;BME280;42298;53.638;9.876;2023-04-05T06:52:06;102249.53;;;7.28;56.23
56400;BME280;42298;53.638;9.876;2023-04-05T06:54:33;102244.13;;;7.33;56.22
56400;BME280;42298;53.638;9.876;2023-04-05T06:56:59;102251.72;;;7.47;56.52
56400;BME280;42298;53.638;9.876;2023-04-05T06:59:27;102255.44;;;7.58;56.59
56400;BME280;42298;53.638;9.876;2023-04-05T07:01:55;102247.03;;;7.64;55.65
56400;BME280;42298;53.638;9.876;2023-04-05T07:04:20;102242.69;;;7.68;55.13
56400;BME280;42298;53.638;9.876;2023-04-05T07:06:46;102230.25;;;7.61;53.89
56400;BME280;42298;53.638;9.876;2023-04-05T07:09:11;102247.31;;;7.63;53.77
56400;BME280;42298;53.638;9.876;2023-04-05T07:11:36;102239.28;;;7.40;53.29
56400;BME280;42298;53.638;9.876;2023-04-05T07:14:04;102270.78;;;7.37;54.09
56400;BME280;42298;53.638;9.876;2023-04-05T07:16:30;102277.78;;;7.12;54.62
56400;BME280;42298;53.638;9.876;2023-04-05T07:18:56;102249.22;;;6.75;55.02
56400;BME280;42298;53.638;9.876;2023-04-05T07:21:22;102266.47;;;6.75;55.09
56400;BME280;42298;53.638;9.876;2023-04-05T07:23:47;102264.56;;;6.76;55.03
56400;BME280;42298;53.638;9.876;2023-04-05T07:26:13;102247.53;;;6.74;54.87
56400;BME280;42298;53.638;9.876;2023-04-05T07:28:38;102274.69;;;6.92;54.77
56400;BME280;42298;53.638;9.876;2023-04-05T07:31:05;102240.47;;;7.27;53.83
56400;BME280;42298;53.638;9.876;2023-04-05T07:33:30;102247.88;;;7.87;52.98
56400;BME280;42298;53.638;9.876;2023-04-05T07:35:56;102247.59;;;8.58;50.17
56400;BME280;42298;53.638;9.876;2023-04-05T07:38:21;102252.66;;;9.39;49.11
56400;BME280;42298;53.638;9.876;2023-04-05T07:40:48;102269.09;;;10.37;47.95
56400;BME280;42298;53.638;9.876;2023-04-05T07:43:14;102254.88;;;10.85;46.32
56400;BME280;42298;53.638;9.876;2023-04-05T07:45:39;102268.41;;;11.27;46.16
56400;BME280;42298;53.638;9.876;2023-04-05T07:48:04;102240.19;;;11.55;44.55
56400;BME280;42298;53.638;9.876;2023-04-05T07:50:30;102268.13;;;12.27;43.21
56400;BME280;42298;53.638;9.876;2023-04-05T07:52:55;102241.88;;;12.68;42.52
56400;BME280;42298;53.638;9.876;2023-04-05T07:55:20;102268.31;;;13.23;41.54
56400;BME280;42298;53.638;9.876;2023-04-05T07:57:47;102244.72;;;13.30;40.10
56400;BME280;42298;53.638;9.876;2023-04-05T08:00:13;102245.41;;;13.41;38.24
56400;BME280;42298;53.638;9.876;2023-04-05T08:02:39;102244.56;;;13.69;39.20
56400;BME280;42298;53.638;9.876;2023-04-05T08:05:05;102249.56;;;13.91;38.86
56400;BME280;42298;53.638;9.876;2023-04-05T08:07:30;102265.34;;;14.14;38.80
56400;BME280;42298;53.638;9.876;2023-04-05T08:09:56;102224.44;;;14.06;38.10
56400;BME280;42298;53.638;9.876;2023-04-05T08:12:24;102243.06;;;14.24;37.83
56400;BME280;42298;53.638;9.876;2023-04-05T08:14:50;102240.41;;;14.56;36.78
56400;BME280;42298;53.638;9.876;2023-04-05T08:17:15;102234.38;;;14.86;36.71
56400;BME280;42298;53.638;9.876;2023-04-05T08:19:40;102241.59;;;15.19;36.39
56400;BME280;42298;53.638;9.876;2023-04-05T08:22:06;102256.41;;;15.60;35.74
56400;BME280;42298;53.638;9.876;2023-04-05T08:24:31;102212.56;;;15.44;34.64
56400;BME280;42298;53.638;9.876;2023-04-05T08:26:56;102239.66;;;15.65;35.29
56400;BME280;42298;53.638;9.876;2023-04-05T08:29:22;102219.88;;;15.53;33.61
56400;BME280;42298;53.638;9.876;2023-04-05T08:31:47;102236.25;;;15.68;33.89
56400;BME280;42298;53.638;9.876;2023-04-05T08:34:12;102249.94;;;15.92;33.69
56400;BME280;42298;53.638;9.876;2023-04-05T08:36:38;102237.28;;;15.99;33.02
56400;BME280;42298;53.638;9.876;2023-04-05T08:39:03;102210.09;;;15.96;34.40
56400;BME280;42298;53.638;9.876;2023-04-05T08:41:34;102225.78;;;16.41;32.80
56400;BME280;42298;53.638;9.876;2023-04-05T08:44:02;102237.44;;;16.79;33.11
56400;BME280;42298;53.638;9.876;2023-04-05T08:46:31;102239.47;;;17.09;32.66
56400;BME280;42298;53.638;9.876;2023-04-05T08:48:57;102227.16;;;17.01;31.51
56400;BME280;42298;53.638;9.876;2023-04-05T08:51:24;102206.69;;;16.62;31.68
56400;BME280;42298;53.638;9.876;2023-04-05T08:53:53;102232.69;;;16.79;32.50
56400;BME280;42298;53.638;9.876;2023-04-05T08:56:26;102234.34;;;17.02;30.87
56400;BME280;42298;53.638;9.876;2023-04-05T08:58:58;102206.16;;;16.95;31.34
56400;BME280;42298;53.638;9.876;2023-04-05T09:01:28;102200.75;;;16.99;29.98
56400;BME280;42298;53.638;9.876;2023-04-05T09:03:56;102206.50;;;17.02;29.56
56400;BME280;42298;53.638;9.876;2023-04-05T09:06:24;102208.38;;;17.15;30.02
56400;BME280;42298;53.638;9.876;2023-04-05T09:08:51;102201.28;;;17.32;29.93
56400;BME280;42298;53.638;9.876;2023-04-05T09:11:17;102197.22;;;17.38;29.27
56400;BME280;42298;53.638;9.876;2023-04-05T09:13:43;102187.78;;;17.47;30.58
56400;BME280;42298;53.638;9.876;2023-04-05T09:16:08;102203.66;;;17.47;28.67
56400;BME280;42298;53.638;9.876;2023-04-05T09:18:34;102189.66;;;17.38;30.29
56400;BME280;42298;53.638;9.876;2023-04-05T09:21:05;102225.63;;;17.79;30.28
56400;BME280;42298;53.638;9.876;2023-04-05T09:23:33;102226.38;;;17.71;30.26
56400;BME280;42298;53.638;9.876;2023-04-05T09:25:59;102192.38;;;17.52;29.65
56400;BME280;42298;53.638;9.876;2023-04-05T09:28:40;102199.34;;;17.63;28.84
56400;BME280;42298;53.638;9.876;2023-04-05T09:31:09;102201.69;;;17.78;30.02
56400;BME280;42298;53.638;9.876;2023-04-05T09:33:34;102188.22;;;17.80;29.75
56400;BME280;42298;53.638;9.876;2023-04-05T09:36:00;102202.38;;;17.92;29.90
56400;BME280;42298;53.638;9.876;2023-04-05T09:38:44;102204.56;;;18.03;29.51
56400;BME280;42298;53.638;9.876;2023-04-05T09:41:15;102183.41;;;17.63;28.97
56400;BME280;42298;53.638;9.876;2023-04-05T09:43:41;102210.81;;;17.70;28.90
56400;BME280;42298;53.638;9.876;2023-04-05T09:46:30;102198.09;;;17.86;29.09
56400;BME280;42298;53.638;9.876;2023-04-05T09:48:56;102186.94;;;17.47;29.95
56400;BME280;42298;53.638;9.876;2023-04-05T09:51:23;102216.84;;;17.63;29.99
56400;BME280;42298;53.638;9.876;2023-04-05T09:54:06;102171.31;;;17.37;29.89
56400;BME280;42298;53.638;9.876;2023-04-05T09:56:36;102177.72;;;17.38;30.30
56400;BME280;42298;53.638;9.876;2023-04-05T09:59:07;102215.50;;;17.52;30.36
56400;BME280;42298;53.638;9.876;2023-04-05T10:01:35;102190.94;;;17.32;29.67
56400;BME280;42298;53.638;9.876;2023-04-05T10:04:01;102163.25;;;17.27;30.04
56400;BME280;42298;53.638;9.876;2023-04-05T10:06:39;102201.59;;;17.61;29.78
56400;BME280;42298;53.638;9.876;2023-04-05T10:09:08;102185.41;;;17.71;29.51
56400;BME280;42298;53.638;9.876;2023-04-05T10:11:41;102186.38;;;17.58;29.96
56400;BME280;42298;53.638;9.876;2023-04-05T10:14:08;102191.81;;;17.72;30.66
56400;BME280;42298;53.638;9.876;2023-04-05T10:16:43;102194.84;;;17.53;30.29
56400;BME280;42298;53.638;9.876;2023-04-05T10:19:37;102177.03;;;17.01;30.63
56400;BME280;42298;53.638;9.876;2023-04-05T10:22:13;102169.50;;;16.80;31.06
56400;BME280;42298;53.638;9.876;2023-04-05T10:24:49;102179.94;;;16.52;30.89
56400;BME280;42298;53.638;9.876;2023-04-05T10:27:28;102147.03;;;16.32;31.04
56400;BME280;42298;53.638;9.876;2023-04-05T10:30:05;102164.91;;;16.53;31.70
56400;BME280;42298;53.638;9.876;2023-04-05T10:32:40;102167.19;;;16.95;31.61
56400;BME280;42298;53.638;9.876;2023-04-05T10:35:14;102145.91;;;17.30;31.11
56400;BME280;42298;53.638;9.876;2023-04-05T10:37:57;102124.47;;;17.00;30.75
56400;BME280;42298;53.638;9.876;2023-04-05T10:40:32;102119.16;;;17.21;30.42
56400;BME280;42298;53.638;9.876;2023-04-05T10:42:59;102159.88;;;17.78;30.54
56400;BME280;42298;53.638;9.876;2023-04-05T10:45:26;102123.66;;;17.78;30.11
56400;BME280;42298;53.638;9.876;2023-04-05T10:48:05;102152.69;;;17.94;29.77
56400;BME280;42298;53.638;9.876;2023-04-05T10:50:36;102113.78;;;17.24;29.60
56400;BME280;42298;53.638;9.876;2023-04-05T10:53:01;102119.81;;;16.43;30.05
56400;BME280;42298;53.638;9.876;2023-04-05T10:55:27;102146.50;;;16.44;31.27
56400;BME280;42298;53.638;9.876;2023-04-05T10:57:53;102135.13;;;16.18;31.69
56400;BME280;42298;53.638;9.876;2023-04-05T11:00:21;102116.19;;;15.71;31.77
56400;BME280;42298;53.638;9.876;2023-04-05T11:02:47;102129.44;;;15.20;31.35
56400;BME280;42298;53.638;9.876;2023-04-05T11:05:30;102116.03;;;14.81;32.34
56400;BME280;42298;53.638;9.876;2023-04-05T11:08:00;102131.16;;;15.02;31.82
56400;BME280;42298;53.638;9.876;2023-04-05T11:10:27;102103.50;;;14.97;31.73
56400;BME280;42298;53.638;9.876;2023-04-05T11:20:43;102123.09;;;15.60;31.92
56400;BME280;42298;53.638;9.876;2023-04-05T11:23:17;102081.50;;;15.69;31.23
56400;BME280;42298;53.638;9.876;2023-04-05T11:25:54;102098.59;;;16.11;30.76
56400;BME280;42298;53.638;9.876;2023-04-05T11:28:33;102106.22;;;16.63;29.69
56400;BME280;42298;53.638;9.876;2023-04-05T11:31:12;102086.47;;;16.95;30.62
56400;BME280;42298;53.638;9.876;2023-04-05T11:36:06;102071.25;;;17.41;29.49
56400;BME280;42298;53.638;9.876;2023-04-05T11:38:32;102057.13;;;17.29;30.50
56400;BME280;42298;53.638;9.876;2023-04-05T11:43:37;102059.06;;;17.20;30.50
56400;BME280;42298;53.638;9.876;2023-04-05T11:46:03;102063.34;;;16.42;30.09
56400;BME280;42298;53.638;9.876;2023-04-05T11:48:31;102047.88;;;16.06;31.29
56400;BME280;42298;53.638;9.876;2023-04-05T11:50:59;102063.47;;;16.15;32.22
56400;BME280;42298;53.638;9.876;2023-04-05T11:53:24;102084.34;;;16.26;32.09
56400;BME280;42298;53.638;9.876;2023-04-05T11:55:50;102067.13;;;16.02;32.27
56400;BME280;42298;53.638;9.876;2023-04-05T11:58:21;102060.13;;;15.69;33.33
56400;BME280;42298;53.638;9.876;2023-04-05T12:00:57;102082.94;;;15.80;34.02
56400;BME280;42298;53.638;9.876;2023-04-05T12:03:22;102071.84;;;15.66;33.87
56400;BME280;42298;53.638;9.876;2023-04-05T12:05:52;102060.75;;;15.66;33.80
56400;BME280;42298;53.638;9.876;2023-04-05T12:08:40;102046.16;;;15.33;34.10
56400;BME280;42298;53.638;9.876;2023-04-05T12:11:14;102053.97;;;15.31;35.16
56400;BME280;42298;53.638;9.876;2023-04-05T12:13:39;102071.50;;;15.46;34.38
56400;BME280;42298;53.638;9.876;2023-04-05T12:16:07;102068.50;;;15.42;35.13
56400;BME280;42298;53.638;9.876;2023-04-05T12:18:35;102067.88;;;15.45;34.84
56400;BME280;42298;53.638;9.876;2023-04-05T12:21:08;102064.88;;;15.42;34.36
56400;BME280;42298;53.638;9.876;2023-04-05T12:23:39;102023.56;;;15.26;34.15
56400;BME280;42298;53.638;9.876;2023-04-05T12:26:12;102023.16;;;15.19;34.32
56400;BME280;42298;53.638;9.876;2023-04-05T12:28:55;102028.50;;;15.16;34.02
56400;BME280;42298;53.638;9.876;2023-04-05T12:34:01;102012.25;;;14.69;34.02
56400;BME280;42298;53.638;9.876;2023-04-05T12:36:27;102017.19;;;14.85;34.98
56400;BME280;42298;53.638;9.876;2023-04-05T12:38:55;102008.03;;;14.71;34.93
56400;BME280;42298;53.638;9.876;2023-04-05T12:41:27;102019.25;;;14.66;34.47
56400;BME280;42298;53.638;9.876;2023-04-05T12:43:54;102038.94;;;14.65;34.08
56400;BME280;42298;53.638;9.876;2023-04-05T12:46:45;102035.44;;;14.73;33.96
56400;BME280;42298;53.638;9.876;2023-04-05T12:49:16;102035.38;;;14.78;33.65
56400;BME280;42298;53.638;9.876;2023-04-05T12:51:44;101995.25;;;14.43;33.86
56400;BME280;42298;53.638;9.876;2023-04-05T12:54:22;101990.75;;;14.34;33.35
56400;BME280;42298;53.638;9.876;2023-04-05T12:56:53;102022.75;;;14.85;33.13
56400;BME280;42298;53.638;9.876;2023-04-05T12:59:20;102026.13;;;15.23;30.98
56400;BME280;42298;53.638;9.876;2023-04-05T13:01:45;102005.34;;;15.48;30.76
56400;BME280;42298;53.638;9.876;2023-04-05T13:04:11;101987.53;;;15.62;28.94
56400;BME280;42298;53.638;9.876;2023-04-05T13:06:57;102021.78;;;15.93;29.75
56400;BME280;42298;53.638;9.876;2023-04-05T13:09:22;101989.69;;;15.87;30.04
56400;BME280;42298;53.638;9.876;2023-04-05T13:11:47;101977.84;;;15.95;29.66
56400;BME280;42298;53.638;9.876;2023-04-05T13:14:12;102010.03;;;15.96;30.38
56400;BME280;42298;53.638;9.876;2023-04-05T13:16:38;101972.06;;;15.70;30.39
56400;BME280;42298;53.638;9.876;2023-04-05T13:19:03;101970.41;;;15.69;30.92
56400;BME280;42298;53.638;9.876;2023-04-05T13:21:29;101967.59;;;15.47;30.75
56400;BME280;42298;53.638;9.876;2023-04-05T13:23:57;101992.81;;;15.37;33.21
56400;BME280;42298;53.638;9.876;2023-04-05T13:26:22;102010.69;;;15.30;34.02